Time;durP1;ratioP1;P1;durP2;ratioP2;P2;SDS_P1;SDS_P2;PMS_P1;PMS_P2;Temp;Humidity;BMP_temperature;BMP_pressure;BME280_temperature;BME280_humidity;BME280_pressure;Samples;Min_cycle;Max_cycle;Signal;HPM_P1;HPM_P2
2022/09/14 00:01:40;;;;;;;;;;;20.00;84.30;;;;;;5083037;28;19951;-68
2022/09/14 00:04:07;;;;;;;;;;;20.00;84.50;;;;;;5085885;28;19916;-68
2022/09/14 00:06:32;;;;;;;;;;;20.00;84.60;;;;;;5083806;28;19920;-68
2022/09/14 00:08:59;;;;;;;;;;;20.00;84.50;;;;;;5085781;28;19966;-68
2022/09/14 00:11:26;;;;;;;;;;;20.00;84.50;;;;;;5082278;28;19920;-68
2022/09/14 00:13:52;;;;;;;;;;;20.00;84.60;;;;;;5086431;28;20427;-68
2022/09/14 00:16:24;;;;;;;;;;;19.90;84.70;;;;;;5083233;28;20003;-68
2022/09/14 00:18:51;;;;;;;;;;;19.90;84.90;;;;;;5085592;28;19916;-68
2022/09/14 00:21:16;;;;;;;;;;;19.90;84.80;;;;;;5083464;28;19918;-68
2022/09/14 00:23:42;;;;;;;;;;;19.90;84.60;;;;;;5084666;28;19912;-68
2022/09/14 00:26:11;;;;;;;;;;;19.80;84.70;;;;;;5083288;28;19916;-68
2022/09/14 00:28:38;;;;;;;;;;;19.80;84.70;;;;;;5085175;28;19920;-68
2022/09/14 00:31:04;;;;;;;;;;;19.80;84.70;;;;;;5084594;28;19951;-68
2022/09/14 00:33:29;;;;;;;;;;;19.80;84.90;;;;;;5083619;28;20023;-68
2022/09/14 00:35:55;;;;;;;;;;;19.80;85.10;;;;;;5085864;28;20576;-68
2022/09/14 00:38:20;;;;;;;;;;;19.80;84.90;;;;;;5082641;28;20662;-68
2022/09/14 00:40:55;;;;;;;;;;;19.80;84.70;;;;;;5085870;28;19912;-67
2022/09/14 00:43:20;;;;;;;;;;;19.80;84.90;;;;;;5082728;28;19923;-68
2022/09/14 00:45:45;;;;;;;;;;;19.80;85.10;;;;;;5085868;28;19912;-68
2022/09/14 00:48:11;;;;;;;;;;;19.70;85.10;;;;;;5083184;28;19970;-67
2022/09/14 00:50:38;;;;;;;;;;;19.70;84.90;;;;;;5086520;28;19919;-68
2022/09/14 00:53:04;;;;;;;;;;;19.70;85.00;;;;;;5081573;28;20472;-68
2022/09/14 00:55:30;;;;;;;;;;;19.70;85.00;;;;;;5085535;28;19920;-67
2022/09/14 00:57:55;;;;;;;;;;;19.70;85.10;;;;;;5082833;28;19998;-67
2022/09/14 01:00:23;;;;;;;;;;;19.70;85.00;;;;;;5085287;28;19948;-68
2022/09/14 01:02:49;;;;;;;;;;;19.70;85.00;;;;;;5084878;28;20590;-68
2022/09/14 01:05:15;;;;;;;;;;;19.70;85.10;;;;;;5083215;28;20646;-68
2022/09/14 01:07:44;;;;;;;;;;;19.60;85.10;;;;;;5082355;28;19919;-68
2022/09/14 01:10:19;;;;;;;;;;;19.60;85.00;;;;;;5085230;28;19973;-68
2022/09/14 01:12:50;;;;;;;;;;;19.60;85.00;;;;;;5078536;28;20630;-68
2022/09/14 01:15:34;;;;;;;;;;;19.60;85.10;;;;;;5083845;28;19916;-68
2022/09/14 01:18:04;;;;;;;;;;;19.60;85.10;;;;;;5080750;28;19912;-67
2022/09/14 01:20:48;;;;;;;;;;;19.50;85.20;;;;;;5085051;28;19916;-68
2022/09/14 01:23:23;;;;;;;;;;;19.60;85.30;;;;;;5081013;28;20727;-68
2022/09/14 01:26:11;;;;;;;;;;;19.50;85.50;;;;;;5086433;28;19919;-68
2022/09/14 01:28:40;;;;;;;;;;;19.50;85.10;;;;;;5082652;28;20392;-68
2022/09/14 01:31:10;;;;;;;;;;;19.50;85.00;;;;;;5084808;28;19923;-68
2022/09/14 01:33:42;;;;;;;;;;;19.50;85.30;;;;;;5082508;28;20326;-68
2022/09/14 01:36:09;;;;;;;;;;;19.50;85.20;;;;;;5085022;28;19981;-68
2022/09/14 01:38:44;;;;;;;;;;;19.50;85.40;;;;;;5083854;28;19920;-68
2022/09/14 01:41:11;;;;;;;;;;;19.40;85.40;;;;;;5081087;28;19955;-67
2022/09/14 01:43:36;;;;;;;;;;;19.40;85.20;;;;;;5080866;28;19912;-68
2022/09/14 01:46:24;;;;;;;;;;;19.40;85.40;;;;;;5082294;28;20493;-68
2022/09/14 01:48:50;;;;;;;;;;;19.40;85.40;;;;;;5084815;28;20287;-68
2022/09/14 01:51:18;;;;;;;;;;;19.40;85.30;;;;;;5082397;28;19920;-68
2022/09/14 01:53:53;;;;;;;;;;;19.40;85.20;;;;;;5084067;28;19919;-68
2022/09/14 01:56:22;;;;;;;;;;;19.40;85.60;;;;;;5098722;28;19920;-67
2022/09/14 01:58:50;;;;;;;;;;;19.40;85.60;;;;;;5083150;28;20347;-67
2022/09/14 02:01:18;;;;;;;;;;;19.30;85.20;;;;;;5081855;28;20296;-67
2022/09/14 02:03:47;;;;;;;;;;;19.30;85.40;;;;;;5081129;28;19946;-67
2022/09/14 02:06:28;;;;;;;;;;;19.30;85.90;;;;;;5081362;28;19916;-67
2022/09/14 02:08:54;;;;;;;;;;;19.30;85.70;;;;;;5083832;28;19927;-67
2022/09/14 02:11:20;;;;;;;;;;;19.30;85.60;;;;;;5078868;28;19921;-67
2022/09/14 02:13:45;;;;;;;;;;;19.30;85.60;;;;;;5081111;28;20388;-67
2022/09/14 02:16:11;;;;;;;;;;;19.20;85.60;;;;;;5082148;28;19916;-67
2022/09/14 02:18:37;;;;;;;;;;;19.20;85.60;;;;;;5087419;28;20474;-67
2022/09/14 02:21:09;;;;;;;;;;;19.20;85.70;;;;;;5085721;28;19923;-67
2022/09/14 02:23:34;;;;;;;;;;;19.20;86.00;;;;;;5084814;28;19927;-67
2022/09/14 02:26:00;;;;;;;;;;;19.20;86.10;;;;;;5085905;28;19916;-67
2022/09/14 02:28:26;;;;;;;;;;;19.20;86.20;;;;;;5088029;28;19919;-67
2022/09/14 02:31:01;;;;;;;;;;;19.10;86.20;;;;;;5085229;28;20333;-67
2022/09/14 02:33:34;;;;;;;;;;;19.20;85.90;;;;;;5085076;28;19923;-67
2022/09/14 02:36:03;;;;;;;;;;;19.10;85.80;;;;;;5085076;28;19913;-67
2022/09/14 02:38:36;;;;;;;;;;;19.10;85.80;;;;;;5084952;28;19916;-67
2022/09/14 02:41:04;;;;;;;;;;;19.10;86.00;;;;;;5087390;28;19923;-67
2022/09/14 02:43:32;;;;;;;;;;;19.10;86.20;;;;;;5085288;28;19961;-67
2022/09/14 02:46:00;;;;;;;;;;;19.10;86.50;;;;;;5086183;28;19912;-67
2022/09/14 02:48:44;;;;;;;;;;;19.10;86.40;;;;;;5084980;28;19963;-67
2022/09/14 02:51:16;;;;;;;;;;;19.00;86.00;;;;;;5087419;28;19922;-67
2022/09/14 02:53:43;;;;;;;;;;;19.00;86.00;;;;;;5084136;28;20667;-67
2022/09/14 02:56:09;;;;;;;;;;;19.00;85.90;;;;;;5087315;28;19957;-67
2022/09/14 02:58:42;;;;;;;;;;;19.00;85.90;;;;;;5084690;28;19923;-67
2022/09/14 03:01:11;;;;;;;;;;;19.00;86.30;;;;;;5087301;28;20568;-67
2022/09/14 03:03:37;;;;;;;;;;;19.00;86.60;;;;;;5082912;28;20000;-67
2022/09/14 03:06:02;;;;;;;;;;;18.90;86.60;;;;;;5086403;28;19927;-67
2022/09/14 03:08:28;;;;;;;;;;;18.90;86.40;;;;;;5084105;28;19956;-67
2022/09/14 03:10:53;;;;;;;;;;;18.90;86.30;;;;;;5086805;28;20019;-67
2022/09/14 03:13:19;;;;;;;;;;;18.90;86.10;;;;;;5083723;28;20350;-67
2022/09/14 03:15:45;;;;;;;;;;;18.90;86.00;;;;;;5086809;28;20345;-67
2022/09/14 03:18:11;;;;;;;;;;;18.90;86.20;;;;;;5084099;28;19916;-67
2022/09/14 03:20:36;;;;;;;;;;;18.90;86.60;;;;;;5086930;28;19916;-67
2022/09/14 03:23:02;;;;;;;;;;;18.90;87.00;;;;;;5084259;28;19971;-67
2022/09/14 03:25:28;;;;;;;;;;;18.90;86.90;;;;;;5086704;28;19916;-67
2022/09/14 03:27:55;;;;;;;;;;;18.90;86.80;;;;;;5083827;28;20281;-67
2022/09/14 03:30:20;;;;;;;;;;;18.90;86.80;;;;;;5085892;28;19966;-67
2022/09/14 03:32:46;;;;;;;;;;;18.80;86.70;;;;;;5086379;28;19916;-67
2022/09/14 03:35:12;;;;;;;;;;;18.80;86.90;;;;;;5084866;28;19962;-67
2022/09/14 03:37:38;;;;;;;;;;;18.80;87.30;;;;;;5085476;28;19912;-67
2022/09/14 03:40:04;;;;;;;;;;;18.80;87.40;;;;;;5084373;28;19917;-67
2022/09/14 03:42:29;;;;;;;;;;;18.80;87.40;;;;;;5088382;28;19939;-67
2022/09/14 03:44:55;;;;;;;;;;;18.80;87.50;;;;;;5089036;28;19915;-67
2022/09/14 03:47:21;;;;;;;;;;;18.80;87.30;;;;;;5090907;28;19908;-67
2022/09/14 03:49:46;;;;;;;;;;;18.70;87.20;;;;;;5084219;28;20482;-67
2022/09/14 03:52:12;;;;;;;;;;;18.80;87.70;;;;;;5086368;28;19912;-67
2022/09/14 03:54:37;;;;;;;;;;;18.80;87.70;;;;;;5083162;28;19920;-67
2022/09/14 03:57:03;;;;;;;;;;;18.80;87.70;;;;;;5086269;28;19912;-67
2022/09/14 03:59:28;;;;;;;;;;;18.80;87.90;;;;;;5083691;28;19912;-67
2022/09/14 04:01:54;;;;;;;;;;;18.70;87.90;;;;;;5086226;28;19927;-67
2022/09/14 04:04:19;;;;;;;;;;;18.70;88.00;;;;;;5084439;28;20436;-67
2022/09/14 04:06:46;;;;;;;;;;;18.70;88.00;;;;;;5086331;28;19916;-67
2022/09/14 04:09:11;;;;;;;;;;;18.70;88.00;;;;;;5085709;28;19916;-67
2022/09/14 04:11:37;;;;;;;;;;;18.70;88.00;;;;;;5076689;28;19917;-67
2022/09/14 04:14:03;;;;;;;;;;;18.70;88.10;;;;;;5084503;28;20296;-67
2022/09/14 04:16:29;;;;;;;;;;;18.70;88.10;;;;;;5083194;28;19917;-67
2022/09/14 04:18:54;;;;;;;;;;;18.60;88.00;;;;;;5089509;28;19916;-67
2022/09/14 04:21:21;;;;;;;;;;;18.60;88.10;;;;;;5083591;28;20308;-67
2022/09/14 04:23:47;;;;;;;;;;;18.60;88.30;;;;;;5083943;28;19912;-67
2022/09/14 04:26:15;;;;;;;;;;;18.60;88.40;;;;;;5084096;28;19916;-67
2022/09/14 04:28:40;;;;;;;;;;;18.60;88.30;;;;;;5085711;28;19912;-67
2022/09/14 04:31:08;;;;;;;;;;;18.60;88.50;;;;;;5083433;28;19920;-67
2022/09/14 04:33:34;;;;;;;;;;;18.60;88.40;;;;;;5082540;28;20672;-67
2022/09/14 04:36:00;;;;;;;;;;;18.60;88.30;;;;;;5080668;28;19916;-67
2022/09/14 04:38:26;;;;;;;;;;;18.60;89.00;;;;;;5084824;28;19908;-67
2022/09/14 04:40:52;;;;;;;;;;;18.60;88.40;;;;;;5082613;28;19923;-67
2022/09/14 04:43:17;;;;;;;;;;;18.60;88.50;;;;;;5083900;28;19916;-67
2022/09/14 04:45:43;;;;;;;;;;;18.60;88.60;;;;;;5084268;28;19919;-67
2022/09/14 04:48:08;;;;;;;;;;;18.60;88.60;;;;;;5086788;28;20407;-67
2022/09/14 04:50:34;;;;;;;;;;;18.50;88.50;;;;;;5084718;28;19923;-67
2022/09/14 04:53:00;;;;;;;;;;;18.50;88.60;;;;;;5080845;28;20011;-67
2022/09/14 04:55:26;;;;;;;;;;;18.50;88.60;;;;;;5085058;28;19912;-67
2022/09/14 04:57:52;;;;;;;;;;;18.50;88.10;;;;;;5082754;28;19916;-67
2022/09/14 05:00:17;;;;;;;;;;;18.50;88.60;;;;;;5086916;28;20367;-67
2022/09/14 05:02:43;;;;;;;;;;;18.50;88.50;;;;;;5082846;28;19916;-67
2022/09/14 05:05:09;;;;;;;;;;;18.50;88.50;;;;;;5084606;28;20443;-67
2022/09/14 05:07:34;;;;;;;;;;;18.50;88.60;;;;;;5083023;28;19993;-67
2022/09/14 05:10:00;;;;;;;;;;;18.50;88.80;;;;;;5084811;28;19928;-67
2022/09/14 05:12:25;;;;;;;;;;;18.50;88.80;;;;;;5079283;28;20504;-67
2022/09/14 05:14:51;;;;;;;;;;;18.50;88.90;;;;;;5084671;28;19922;-67
2022/09/14 05:17:16;;;;;;;;;;;18.50;88.90;;;;;;5080598;28;19938;-67
2022/09/14 05:19:42;;;;;;;;;;;18.40;88.80;;;;;;5085157;28;20004;-67
2022/09/14 05:22:07;;;;;;;;;;;18.40;88.90;;;;;;5084713;28;19927;-67
2022/09/14 05:24:32;;;;;;;;;;;18.40;88.90;;;;;;5083256;28;19977;-67
2022/09/14 05:26:58;;;;;;;;;;;18.40;89.00;;;;;;5082884;28;20325;-69
2022/09/14 05:29:24;;;;;;;;;;;18.40;89.00;;;;;;5083902;28;19923;-68
2022/09/14 05:31:49;;;;;;;;;;;18.40;89.10;;;;;;5088178;28;20396;-67
2022/09/14 05:34:15;;;;;;;;;;;18.40;89.00;;;;;;5081675;28;20033;-67
2022/09/14 05:36:40;;;;;;;;;;;18.40;89.10;;;;;;5083617;28;19991;-67
2022/09/14 05:39:06;;;;;;;;;;;18.40;89.10;;;;;;5081095;28;19923;-67
2022/09/14 05:41:32;;;;;;;;;;;18.40;89.00;;;;;;5082685;28;19917;-67
2022/09/14 05:43:58;;;;;;;;;;;18.40;89.00;;;;;;5081704;28;19916;-67
2022/09/14 05:46:24;;;;;;;;;;;18.40;89.10;;;;;;5084796;28;19916;-67
2022/09/14 05:48:50;;;;;;;;;;;18.40;89.10;;;;;;5081506;28;19959;-67
2022/09/14 05:51:17;;;;;;;;;;;18.40;89.10;;;;;;5084408;28;20292;-67
2022/09/14 05:53:53;;;;;;;;;;;18.30;89.00;;;;;;5085442;28;20003;-67
2022/09/14 05:56:19;;;;;;;;;;;18.30;89.00;;;;;;5086845;28;19927;-67
2022/09/14 05:58:45;;;;;;;;;;;18.30;89.10;;;;;;5086250;28;19951;-67
2022/09/14 06:01:12;;;;;;;;;;;18.30;89.20;;;;;;5088076;28;19950;-67
2022/09/14 06:03:38;;;;;;;;;;;18.30;89.10;;;;;;5085905;28;20026;-67
2022/09/14 06:06:04;;;;;;;;;;;18.30;89.10;;;;;;5080142;28;20619;-67
2022/09/14 06:08:30;;;;;;;;;;;18.30;89.30;;;;;;5087774;28;20423;-67
2022/09/14 06:10:55;;;;;;;;;;;18.20;89.10;;;;;;5083036;28;19920;-67
2022/09/14 06:13:22;;;;;;;;;;;18.30;89.20;;;;;;5088037;28;20333;-67
2022/09/14 06:15:48;;;;;;;;;;;18.20;89.10;;;;;;5083373;28;20272;-67
2022/09/14 06:18:13;;;;;;;;;;;18.20;89.10;;;;;;5087704;28;19912;-67
2022/09/14 06:20:39;;;;;;;;;;;18.20;89.10;;;;;;5085234;28;19916;-67
2022/09/14 06:23:04;;;;;;;;;;;18.20;89.10;;;;;;5090639;28;19939;-66
2022/09/14 06:25:30;;;;;;;;;;;18.20;89.10;;;;;;5085082;28;19912;-66
2022/09/14 06:27:55;;;;;;;;;;;18.20;89.20;;;;;;5088341;28;19912;-67
2022/09/14 06:30:21;;;;;;;;;;;18.20;89.50;;;;;;5085135;28;20667;-67
2022/09/14 06:32:46;;;;;;;;;;;18.20;89.30;;;;;;5087642;28;20360;-66
2022/09/14 06:35:12;;;;;;;;;;;18.20;89.20;;;;;;5084897;28;19913;-67
2022/09/14 06:37:37;;;;;;;;;;;18.20;89.30;;;;;;5087300;28;19916;-67
2022/09/14 06:40:03;;;;;;;;;;;18.20;89.30;;;;;;5088713;28;19922;-67
2022/09/14 06:42:29;;;;;;;;;;;18.20;89.30;;;;;;5085138;28;19924;-66
2022/09/14 06:44:55;;;;;;;;;;;18.20;89.20;;;;;;5086962;28;20379;-67
2022/09/14 06:47:20;;;;;;;;;;;18.20;89.30;;;;;;5085090;28;19920;-66
2022/09/14 06:49:48;;;;;;;;;;;18.20;89.30;;;;;;5082636;28;19916;-66
2022/09/14 06:52:14;;;;;;;;;;;18.10;89.20;;;;;;5084266;28;19923;-67
2022/09/14 06:54:39;;;;;;;;;;;18.10;89.40;;;;;;5086258;28;19912;-66
2022/09/14 06:57:05;;;;;;;;;;;18.10;89.30;;;;;;5084278;28;19970;-67
2022/09/14 06:59:30;;;;;;;;;;;18.10;89.40;;;;;;5084427;28;19912;-66
2022/09/14 07:01:56;;;;;;;;;;;18.10;89.40;;;;;;5082667;28;19919;-67
2022/09/14 07:04:21;;;;;;;;;;;18.10;89.50;;;;;;5084985;28;19924;-67
2022/09/14 07:06:48;;;;;;;;;;;18.10;89.40;;;;;;5084218;28;19994;-66
2022/09/14 07:09:14;;;;;;;;;;;18.10;89.50;;;;;;5086340;28;19924;-67
2022/09/14 07:11:40;;;;;;;;;;;18.10;89.50;;;;;;5084892;28;19919;-67
2022/09/14 07:14:06;;;;;;;;;;;18.10;89.60;;;;;;5085163;28;19916;-67
2022/09/14 07:16:33;;;;;;;;;;;18.10;89.60;;;;;;5083992;28;19912;-66
2022/09/14 07:19:03;;;;;;;;;;;18.10;89.70;;;;;;5082123;28;19916;-67
2022/09/14 07:21:29;;;;;;;;;;;18.10;89.50;;;;;;5085540;28;19915;-66
2022/09/14 07:23:55;;;;;;;;;;;18.10;89.50;;;;;;5082149;28;19940;-67
2022/09/14 07:26:22;;;;;;;;;;;18.00;89.50;;;;;;5086284;28;19966;-66
2022/09/14 07:28:49;;;;;;;;;;;18.00;89.50;;;;;;5079412;28;19920;-66
2022/09/14 07:31:15;;;;;;;;;;;18.10;89.50;;;;;;5085325;28;19923;-66
2022/09/14 07:33:40;;;;;;;;;;;18.00;89.50;;;;;;5082790;28;20937;-66
2022/09/14 07:36:06;;;;;;;;;;;18.00;89.40;;;;;;5085421;28;19951;-66
2022/09/14 07:38:32;;;;;;;;;;;18.00;89.20;;;;;;5082559;28;19916;-67
2022/09/14 07:40:58;;;;;;;;;;;18.00;89.10;;;;;;5082810;28;19917;-66
2022/09/14 07:43:23;;;;;;;;;;;18.00;89.00;;;;;;5082732;28;20310;-66
2022/09/14 07:45:49;;;;;;;;;;;18.00;89.30;;;;;;5088747;28;19915;-66
2022/09/14 07:48:14;;;;;;;;;;;18.00;89.20;;;;;;5087317;28;20011;-66
2022/09/14 07:50:40;;;;;;;;;;;18.00;89.40;;;;;;5083581;28;19923;-66
2022/09/14 07:53:05;;;;;;;;;;;18.00;89.50;;;;;;5086629;28;19970;-67
2022/09/14 07:55:31;;;;;;;;;;;18.00;89.50;;;;;;5084010;28;20464;-66
2022/09/14 07:57:56;;;;;;;;;;;18.00;89.40;;;;;;5085560;28;20286;-67
2022/09/14 08:00:23;;;;;;;;;;;18.00;88.90;;;;;;5082505;28;19923;-67
2022/09/14 08:02:52;;;;;;;;;;;18.00;89.00;;;;;;5085143;27;19916;-67
2022/09/14 08:05:18;;;;;;;;;;;18.00;89.00;;;;;;5082207;28;20452;-67
2022/09/14 08:07:44;;;;;;;;;;;18.00;89.10;;;;;;5085486;28;20380;-67
2022/09/14 08:10:09;;;;;;;;;;;18.00;89.30;;;;;;5082076;28;19920;-67
2022/09/14 08:12:35;;;;;;;;;;;18.00;89.30;;;;;;5084749;28;19912;-67
2022/09/14 08:15:00;;;;;;;;;;;18.00;89.10;;;;;;5081447;28;19920;-66
2022/09/14 08:17:25;;;;;;;;;;;18.00;89.00;;;;;;5082742;28;19916;-67
2022/09/14 08:19:51;;;;;;;;;;;18.00;89.10;;;;;;5082190;28;19919;-67
2022/09/14 08:22:17;;;;;;;;;;;18.00;89.50;;;;;;5084481;28;20023;-66
2022/09/14 08:24:42;;;;;;;;;;;18.00;89.60;;;;;;5081812;28;19919;-66
2022/09/14 08:27:08;;;;;;;;;;;18.00;89.50;;;;;;5084952;28;19996;-66
2022/09/14 08:29:34;;;;;;;;;;;18.00;89.60;;;;;;5081939;28;19916;-66
2022/09/14 08:31:59;;;;;;;;;;;17.90;89.50;;;;;;5084205;28;20368;-67
2022/09/14 08:34:25;;;;;;;;;;;18.00;89.30;;;;;;5084164;28;19931;-66
2022/09/14 08:36:50;;;;;;;;;;;18.00;89.10;;;;;;5081954;28;19920;-67
2022/09/14 08:39:16;;;;;;;;;;;18.00;89.20;;;;;;5083829;28;20603;-66
2022/09/14 08:41:41;;;;;;;;;;;18.00;89.10;;;;;;5081485;28;19969;-66
2022/09/14 08:44:10;;;;;;;;;;;17.90;88.90;;;;;;5084144;28;19916;-66
2022/09/14 08:46:40;;;;;;;;;;;17.90;88.90;;;;;;5081923;28;19950;-67
2022/09/14 08:49:12;;;;;;;;;;;17.90;88.90;;;;;;5084762;28;19942;-67
2022/09/14 08:51:37;;;;;;;;;;;17.90;89.00;;;;;;5080099;28;19920;-67
2022/09/14 08:54:03;;;;;;;;;;;17.90;88.90;;;;;;5083998;28;19919;-66
2022/09/14 08:56:32;;;;;;;;;;;17.90;89.00;;;;;;5081773;28;19965;-67
2022/09/14 08:59:07;;;;;;;;;;;17.90;89.00;;;;;;5083272;28;20007;-67
2022/09/14 09:01:34;;;;;;;;;;;17.90;89.10;;;;;;5080922;28;19916;-67
2022/09/14 09:04:18;;;;;;;;;;;17.90;89.00;;;;;;5078772;28;20305;-66
2022/09/14 09:06:53;;;;;;;;;;;17.90;89.00;;;;;;5079274;28;20006;-67
2022/09/14 09:09:32;;;;;;;;;;;17.90;89.00;;;;;;5079145;28;20603;-66
2022/09/14 09:11:58;;;;;;;;;;;17.90;89.10;;;;;;5078082;28;20012;-67
2022/09/14 09:14:32;;;;;;;;;;;17.90;89.00;;;;;;5082882;28;19946;-66
2022/09/14 09:16:59;;;;;;;;;;;17.90;89.00;;;;;;5081681;28;20374;-66
2022/09/14 09:19:48;;;;;;;;;;;17.90;88.90;;;;;;5083776;28;20325;-66
2022/09/14 09:22:15;;;;;;;;;;;17.90;88.90;;;;;;5082979;28;19919;-67
2022/09/14 09:24:44;;;;;;;;;;;17.90;89.10;;;;;;5083554;28;19912;-66
2022/09/14 09:27:10;;;;;;;;;;;17.90;89.10;;;;;;5084344;28;20021;-66
2022/09/14 09:29:35;;;;;;;;;;;17.90;89.10;;;;;;5087934;28;20362;-66
2022/09/14 09:32:03;;;;;;;;;;;17.90;89.00;;;;;;5085149;28;19912;-66
2022/09/14 09:34:29;;;;;;;;;;;17.90;89.10;;;;;;5087291;28;20299;-66
2022/09/14 09:36:54;;;;;;;;;;;17.90;89.10;;;;;;5086676;28;19916;-66
2022/09/14 09:39:21;;;;;;;;;;;17.90;89.00;;;;;;5084574;28;19927;-66
2022/09/14 09:42:05;;;;;;;;;;;17.90;89.00;;;;;;5087713;28;20351;-67
2022/09/14 09:44:50;;;;;;;;;;;17.90;89.00;;;;;;5084879;28;19916;-66
2022/09/14 09:47:23;;;;;;;;;;;17.90;89.10;;;;;;5087608;28;19918;-66
2022/09/14 09:49:55;;;;;;;;;;;17.90;89.00;;;;;;5084850;28;20372;-66
2022/09/14 09:52:21;;;;;;;;;;;17.90;89.10;;;;;;5087425;28;19963;-66
2022/09/14 09:54:50;;;;;;;;;;;17.90;89.10;;;;;;5085003;28;20015;-66
2022/09/14 09:57:22;;;;;;;;;;;17.90;89.10;;;;;;5087469;28;19916;-66
2022/09/14 09:59:48;;;;;;;;;;;17.80;89.00;;;;;;5085160;28;20830;-66
2022/09/14 10:02:16;;;;;;;;;;;17.80;89.10;;;;;;5087864;28;19965;-66
2022/09/14 10:04:55;;;;;;;;;;;17.80;89.10;;;;;;5085041;28;19916;-66
2022/09/14 10:07:21;;;;;;;;;;;17.80;89.10;;;;;;5087628;28;19909;-67
2022/09/14 10:09:56;;;;;;;;;;;17.80;89.20;;;;;;5084546;28;19924;-66
2022/09/14 10:12:21;;;;;;;;;;;17.80;89.20;;;;;;5086017;28;19908;-66
2022/09/14 10:14:47;;;;;;;;;;;17.80;89.10;;;;;;5085643;28;19924;-66
2022/09/14 10:17:20;;;;;;;;;;;17.80;89.80;;;;;;5086657;28;19912;-66
2022/09/14 10:19:46;;;;;;;;;;;17.90;89.30;;;;;;5082604;28;20380;-66
2022/09/14 10:22:15;;;;;;;;;;;17.80;89.10;;;;;;5086871;28;19912;-66
2022/09/14 10:24:50;;;;;;;;;;;17.80;89.20;;;;;;5084914;28;19916;-66
2022/09/14 10:27:35;;;;;;;;;;;17.80;89.30;;;;;;5088298;28;19912;-67
2022/09/14 10:30:02;;;;;;;;;;;17.80;89.20;;;;;;5085630;28;20018;-67
2022/09/14 10:32:29;;;;;;;;;;;17.80;89.30;;;;;;5087683;28;19923;-66
2022/09/14 10:34:54;;;;;;;;;;;17.80;89.30;;;;;;5085020;28;19950;-67
2022/09/14 10:37:31;;;;;;;;;;;17.80;89.10;;;;;;5087263;28;19916;-66
2022/09/14 10:40:03;;;;;;;;;;;17.80;89.20;;;;;;5079525;28;20556;-66
2022/09/14 10:42:39;;;;;;;;;;;17.80;89.20;;;;;;5087487;28;19927;-66
2022/09/14 10:45:20;;;;;;;;;;;17.80;89.10;;;;;;5084995;28;20053;-66
2022/09/14 10:48:05;;;;;;;;;;;17.80;89.10;;;;;;5087088;28;19908;-66
2022/09/14 10:50:33;;;;;;;;;;;17.80;89.10;;;;;;5081537;28;19990;-66
2022/09/14 10:53:07;;;;;;;;;;;17.80;89.20;;;;;;5087926;28;19916;-66
2022/09/14 10:55:45;;;;;;;;;;;17.80;89.20;;;;;;5081095;28;19912;-66
2022/09/14 10:58:11;;;;;;;;;;;17.80;89.10;;;;;;5087472;28;19951;-66
2022/09/14 11:01:02;;;;;;;;;;;17.80;89.10;;;;;;5082880;28;22322;-66
2022/09/14 11:03:38;;;;;;;;;;;17.80;89.20;;;;;;5084769;28;19927;-66
2022/09/14 11:06:14;;;;;;;;;;;17.80;89.30;;;;;;5083140;28;19976;-66
2022/09/14 11:09:06;;;;;;;;;;;17.80;89.20;;;;;;5086392;28;19925;-66
2022/09/14 11:11:34;;;;;;;;;;;17.80;89.20;;;;;;5076264;28;19973;-66
2022/09/14 11:14:18;;;;;;;;;;;17.90;89.20;;;;;;5090395;28;19923;-66
2022/09/14 11:16:55;;;;;;;;;;;17.90;89.20;;;;;;5086191;28;19916;-66
2022/09/14 11:19:27;;;;;;;;;;;17.90;89.20;;;;;;5087006;28;20706;-67
2022/09/14 11:22:03;;;;;;;;;;;17.90;89.10;;;;;;5083727;28;19985;-66
2022/09/14 11:24:34;;;;;;;;;;;17.90;89.10;;;;;;5085157;28;20428;-66
2022/09/14 11:27:02;;;;;;;;;;;17.90;89.20;;;;;;5082813;28;19916;-66
2022/09/14 11:29:32;;;;;;;;;;;17.90;89.10;;;;;;5085579;28;19919;-66
2022/09/14 11:32:06;;;;;;;;;;;17.90;89.10;;;;;;5083370;28;20005;-66
2022/09/14 11:34:39;;;;;;;;;;;17.90;89.10;;;;;;5085087;28;20323;-66
2022/09/14 11:37:16;;;;;;;;;;;17.90;89.10;;;;;;5079032;28;19920;-66
2022/09/14 11:39:44;;;;;;;;;;;17.90;89.10;;;;;;5084168;28;19919;-66
2022/09/14 11:42:15;;;;;;;;;;;17.90;89.10;;;;;;5079792;28;19912;-66
2022/09/14 11:44:43;;;;;;;;;;;17.90;89.10;;;;;;5085717;28;19916;-66
2022/09/14 11:47:12;;;;;;;;;;;17.90;89.10;;;;;;5083807;28;19916;-66
2022/09/14 11:49:56;;;;;;;;;;;17.90;89.20;;;;;;5084121;28;19912;-66
2022/09/14 11:52:23;;;;;;;;;;;17.90;89.10;;;;;;5083257;28;19919;-66
2022/09/14 11:54:49;;;;;;;;;;;17.90;89.20;;;;;;5085551;28;20010;-66
2022/09/14 11:57:17;;;;;;;;;;;17.90;89.20;;;;;;5085626;28;20002;-66
2022/09/14 11:59:43;;;;;;;;;;;17.90;89.20;;;;;;5082520;28;20352;-66
2022/09/14 12:02:23;;;;;;;;;;;17.90;89.10;;;;;;5084952;28;20728;-66
2022/09/14 12:05:08;;;;;;;;;;;17.80;88.90;;;;;;5081634;28;19920;-66
2022/09/14 12:07:42;;;;;;;;;;;17.90;89.00;;;;;;5079807;28;20411;-66
2022/09/14 12:10:17;;;;;;;;;;;17.90;89.10;;;;;;5082375;28;19931;-66
2022/09/14 12:12:47;;;;;;;;;;;17.90;89.00;;;;;;5082964;28;19923;-66
2022/09/14 12:15:12;;;;;;;;;;;17.90;89.00;;;;;;5081996;28;19915;-66
2022/09/14 12:17:38;;;;;;;;;;;17.90;89.10;;;;;;5102782;27;20331;-66
2022/09/14 12:20:23;;;;;;;;;;;17.90;89.00;;;;;;5082680;28;19916;-66
2022/09/14 12:22:48;;;;;;;;;;;17.90;89.00;;;;;;5085110;28;19912;-67
2022/09/14 12:25:18;;;;;;;;;;;17.90;89.00;;;;;;5082461;28;19923;-66
2022/09/14 12:27:45;;;;;;;;;;;17.90;89.00;;;;;;5085049;28;19966;-67
2022/09/14 12:30:30;;;;;;;;;;;17.90;89.00;;;;;;5081892;28;20555;-66
2022/09/14 12:32:55;;;;;;;;;;;17.90;89.00;;;;;;5084616;28;19919;-66
2022/09/14 12:35:33;;;;;;;;;;;17.90;89.00;;;;;;5081940;28;20685;-67
2022/09/14 12:37:58;;;;;;;;;;;17.90;89.00;;;;;;5084417;28;20324;-66
2022/09/14 12:40:24;;;;;;;;;;;17.90;89.10;;;;;;5082183;28;20015;-66
2022/09/14 12:42:49;;;;;;;;;;;17.90;89.10;;;;;;5105590;27;19934;-66
2022/09/14 12:45:34;;;;;;;;;;;17.90;89.10;;;;;;5080098;28;19938;-67
2022/09/14 12:48:00;;;;;;;;;;;17.90;89.10;;;;;;5082122;28;19911;-66
2022/09/14 12:50:29;;;;;;;;;;;17.90;89.10;;;;;;5081348;28;19927;-67
2022/09/14 12:53:19;;;;;;;;;;;17.90;89.20;;;;;;5116769;27;20451;-67
2022/09/14 12:55:54;;;;;;;;;;;17.90;89.10;;;;;;5078304;28;19923;-67
2022/09/14 12:58:29;;;;;;;;;;;17.90;89.10;;;;;;5083716;28;19934;-66
2022/09/14 13:01:00;;;;;;;;;;;17.90;89.10;;;;;;5081545;28;19946;-66
2022/09/14 13:03:46;;;;;;;;;;;17.90;89.10;;;;;;5084477;28;19919;-67
2022/09/14 13:06:12;;;;;;;;;;;17.90;89.10;;;;;;5081467;28;19960;-66
2022/09/14 13:08:41;;;;;;;;;;;17.90;89.20;;;;;;5084813;28;20315;-66
2022/09/14 13:11:08;;;;;;;;;;;17.90;89.10;;;;;;5082192;28;19920;-66
2022/09/14 13:13:35;;;;;;;;;;;17.90;89.20;;;;;;5083846;28;20427;-66
2022/09/14 13:16:02;;;;;;;;;;;17.90;89.10;;;;;;5079510;28;19919;-67
2022/09/14 13:18:31;;;;;;;;;;;17.90;89.20;;;;;;5084696;28;19939;-66
2022/09/14 13:20:57;;;;;;;;;;;17.90;89.10;;;;;;5080785;28;19916;-66
2022/09/14 13:23:26;;;;;;;;;;;17.90;89.10;;;;;;5086484;28;20387;-66
2022/09/14 13:25:52;;;;;;;;;;;17.90;89.10;;;;;;5084140;28;19988;-66
2022/09/14 13:28:18;;;;;;;;;;;17.90;89.10;;;;;;5079698;28;19920;-66
2022/09/14 13:30:55;;;;;;;;;;;17.90;89.20;;;;;;5080857;28;19924;-67
2022/09/14 13:33:20;;;;;;;;;;;17.90;89.10;;;;;;5082641;28;19912;-66
2022/09/14 13:35:51;;;;;;;;;;;18.00;89.20;;;;;;5082999;28;19924;-66
2022/09/14 13:38:21;;;;;;;;;;;17.90;89.00;;;;;;5081460;28;19922;-66
2022/09/14 13:40:48;;;;;;;;;;;18.00;89.10;;;;;;5083705;28;19923;-66
2022/09/14 13:43:15;;;;;;;;;;;18.00;89.10;;;;;;5081529;28;20489;-66
2022/09/14 13:45:41;;;;;;;;;;;18.00;89.00;;;;;;5083524;28;19912;-67
2022/09/14 13:48:06;;;;;;;;;;;18.00;89.00;;;;;;5081656;28;20646;-66
2022/09/14 13:50:32;;;;;;;;;;;18.00;88.90;;;;;;5083474;28;19916;-66
2022/09/14 13:52:57;;;;;;;;;;;18.00;89.00;;;;;;5083834;28;19924;-66
2022/09/14 13:55:27;;;;;;;;;;;18.00;89.00;;;;;;5083002;28;20740;-66
2022/09/14 13:58:05;;;;;;;;;;;18.10;88.90;;;;;;5079880;28;19926;-66
2022/09/14 14:00:31;;;;;;;;;;;18.10;88.90;;;;;;5076777;28;19916;-66
2022/09/14 14:03:01;;;;;;;;;;;18.10;88.90;;;;;;5080433;28;19918;-66
2022/09/14 14:05:26;;;;;;;;;;;18.10;88.90;;;;;;5077237;28;19919;-66
2022/09/14 14:07:53;;;;;;;;;;;18.10;88.80;;;;;;5079654;28;19955;-67
2022/09/14 14:10:23;;;;;;;;;;;18.10;89.00;;;;;;5079663;28;19924;-66
2022/09/14 14:12:49;;;;;;;;;;;18.10;89.00;;;;;;5081737;28;20058;-66
2022/09/14 14:15:17;;;;;;;;;;;18.10;89.00;;;;;;5086914;28;19915;-66
2022/09/14 14:17:43;;;;;;;;;;;18.10;88.90;;;;;;5086848;28;20256;-66
2022/09/14 14:20:28;;;;;;;;;;;18.10;88.90;;;;;;5083377;28;19923;-66
2022/09/14 14:22:54;;;;;;;;;;;18.10;88.90;;;;;;5087363;28;19943;-67
2022/09/14 14:25:27;;;;;;;;;;;18.20;89.20;;;;;;5084826;28;20368;-66